Time;durP1;ratioP1;P1;durP2;ratioP2;P2;SDS_P1;SDS_P2;PMS_P1;PMS_P2;Temp;Humidity;BMP_temperature;BMP_pressure;BME280_temperature;BME280_humidity;BME280_pressure;Samples;Min_cycle;Max_cycle;Signal;HPM_P1;HPM_P2
2021/12/25 00:00:18;;;;;;;4.15;2.05;;;0.20;99.90;;;;;;4964091;28;88161;-40
2021/12/25 00:02:44;;;;;;;6.90;2.20;;;0.20;99.90;;;;;;4964537;28;90558;-35
2021/12/25 00:05:11;;;;;;;5.80;2.28;;;0.30;99.90;;;;;;4964156;28;89506;-34
2021/12/25 00:07:37;;;;;;;1.67;1.58;;;0.30;99.90;;;;;;4963462;28;89470;-42
2021/12/25 00:10:05;;;;;;;3.53;1.88;;;0.20;99.90;;;;;;4964055;28;89260;-38
2021/12/25 00:12:31;;;;;;;8.60;2.35;;;0.20;99.90;;;;;;4963696;28;91798;-36
2021/12/25 00:14:56;;;;;;;4.30;2.53;;;0.10;99.90;;;;;;4964383;28;89704;-39
2021/12/25 00:17:22;;;;;;;4.07;2.25;;;0.10;99.90;;;;;;4964362;28;89607;-38
2021/12/25 00:19:48;;;;;;;3.20;1.25;;;0.10;99.90;;;;;;4963493;28;87644;-41
2021/12/25 00:22:14;;;;;;;2.45;1.80;;;0.10;99.90;;;;;;4963564;28;89468;-41
2021/12/25 00:24:43;;;;;;;2.58;2.25;;;0.10;99.90;;;;;;4963313;28;88562;-36
2021/12/25 00:30:13;;;;;;;2.75;1.90;;;0.00;99.90;;;;;;4964080;28;87465;-40
2021/12/25 00:32:52;;;;;;;2.20;1.42;;;-0.10;99.90;;;;;;4963746;28;91607;-37
2021/12/25 00:35:18;;;;;;;5.07;1.85;;;-0.10;99.90;;;;;;4963758;28;89364;-34
2021/12/25 00:37:44;;;;;;;3.38;1.77;;;-0.10;99.90;;;;;;4964058;28;89768;-38
2021/12/25 00:40:10;;;;;;;1.77;1.60;;;-0.20;99.90;;;;;;4964309;28;88462;-41
2021/12/25 00:42:36;;;;;;;4.32;1.50;;;-0.20;99.90;;;;;;4962883;28;90997;-36
2021/12/25 00:45:02;;;;;;;1.75;1.65;;;-0.10;99.90;;;;;;4962980;28;89312;-36
2021/12/25 00:47:27;;;;;;;2.25;1.40;;;-0.10;99.90;;;;;;4963777;28;88372;-37
2021/12/25 00:49:53;;;;;;;2.05;1.40;;;-0.20;99.90;;;;;;4963115;28;87460;-34
2021/12/25 00:52:19;;;;;;;3.13;2.10;;;-0.30;99.90;;;;;;4963186;28;91840;-39
2021/12/25 00:54:44;;;;;;;2.97;1.48;;;-0.40;99.90;;;;;;4962557;28;89109;-39
2021/12/25 00:57:10;;;;;;;2.72;1.52;;;-0.30;99.90;;;;;;4963552;28;88563;-36
2021/12/25 00:59:35;;;;;;;2.92;1.45;;;-0.40;99.90;;;;;;4963247;28;89680;-32
2021/12/25 01:02:01;;;;;;;3.13;1.67;;;-0.40;99.90;;;;;;4963306;28;90707;-43
2021/12/25 01:04:27;;;;;;;4.45;1.92;;;-0.50;99.90;;;;;;4962725;28;90223;-36
2021/12/25 01:06:53;;;;;;;1.45;1.27;;;-0.50;99.90;;;;;;4963413;28;89920;-32
2021/12/25 01:09:19;;;;;;;0.80;0.80;;;-0.60;99.90;;;;;;4963277;28;87914;-41
2021/12/25 01:11:47;;;;;;;5.15;2.13;;;-0.50;99.90;;;;;;4962592;28;91427;-39
2021/12/25 01:17:14;;;;;;;1.95;1.52;;;-0.50;99.90;;;;;;4963056;28;88463;-37
2021/12/25 01:29:05;;;;;;;5.55;1.45;;;-0.70;99.90;;;;;;4958737;28;88340;-37
2021/12/25 01:31:40;;;;;;;4.03;1.95;;;-0.70;99.90;;;;;;4982596;28;88420;-40
2021/12/25 01:39:48;;;;;;;6.22;3.28;;;-0.90;99.90;;;;;;4982848;28;90470;-34
2021/12/25 01:47:48;;;;;;;2.28;1.15;;;-0.90;99.90;;;;;;4982637;28;89975;-36
2021/12/25 01:50:18;;;;;;;2.97;1.50;;;-0.90;99.90;;;;;;4982754;28;88727;-35
2021/12/25 01:52:44;;;;;;;3.15;1.42;;;-0.90;99.90;;;;;;4981659;28;88954;-38
2021/12/25 01:55:17;;;;;;;4.38;1.77;;;-0.90;99.90;;;;;;4982813;28;89246;-33
2021/12/25 01:57:42;;;;;;;2.05;1.85;;;-1.00;99.90;;;;;;4982045;28;90348;-36
2021/12/25 02:00:17;;;;;;;2.22;1.80;;;-1.10;99.90;;;;;;4981928;28;89073;-39
2021/12/25 02:02:44;;;;;;;4.22;2.15;;;-1.20;99.90;;;;;;4962973;28;89882;-38
2021/12/25 02:05:09;;;;;;;3.17;1.38;;;-1.10;99.90;;;;;;4981886;28;90024;-34
2021/12/25 02:07:35;;;;;;;2.72;1.55;;;-1.10;99.90;;;;;;4981857;28;90488;-37
2021/12/25 02:10:02;;;;;;;3.90;1.67;;;-1.20;99.90;;;;;;4982370;28;87653;-40
2021/12/25 02:12:28;;;;;;;4.38;2.53;;;-1.20;99.90;;;;;;4981862;28;89237;-44
2021/12/25 02:14:54;;;;;;;3.75;1.42;;;-1.20;99.90;;;;;;4982302;28;89722;-37
2021/12/25 02:19:55;;;;;;;1.65;1.42;;;-1.30;99.90;;;;;;4982448;28;88537;-37
2021/12/25 02:22:24;;;;;;;13.93;1.95;;;-1.30;99.90;;;;;;4982448;28;89926;-33
2021/12/25 02:24:50;;;;;;;2.05;1.15;;;-1.40;99.90;;;;;;4980868;28;90768;-40
2021/12/25 02:27:15;;;;;;;2.13;1.73;;;-1.40;99.90;;;;;;4981232;28;89807;-35
2021/12/25 02:29:41;;;;;;;7.60;1.27;;;-1.40;99.90;;;;;;4982041;28;87806;-38
2021/12/25 02:32:07;;;;;;;1.63;1.27;;;-1.40;99.90;;;;;;4981692;28;88187;-34
2021/12/25 02:34:33;;;;;;;2.10;1.85;;;-1.40;99.90;;;;;;4981247;28;90359;-41
2021/12/25 02:36:58;;;;;;;1.70;1.45;;;-1.40;99.90;;;;;;4981581;28;90055;-41
2021/12/25 02:39:24;;;;;;;3.22;1.90;;;-1.50;99.90;;;;;;4981423;28;89243;-39
2021/12/25 02:41:50;;;;;;;2.25;1.55;;;-1.50;99.90;;;;;;4981384;28;87614;-35
2021/12/25 02:44:16;;;;;;;0.90;0.90;;;-1.50;99.90;;;;;;4980813;28;90565;-38
2021/12/25 02:46:42;;;;;;;3.65;1.88;;;-1.60;99.90;;;;;;4981476;28;90629;-37
2021/12/25 02:49:11;;;;;;;2.28;1.35;;;-1.60;99.90;;;;;;4981650;28;88602;-41
2021/12/25 02:51:37;;;;;;;1.77;1.27;;;-1.70;99.90;;;;;;4980703;28;89816;-35
2021/12/25 02:54:03;;;;;;;2.95;1.55;;;-1.70;99.90;;;;;;4981504;28;90810;-42
2021/12/25 02:56:28;;;;;;;2.40;1.35;;;-1.80;99.90;;;;;;4981370;28;89624;-37
2021/12/25 02:58:54;;;;;;;2.40;1.15;;;-1.80;99.90;;;;;;4981567;28;89835;-42
2021/12/25 03:01:20;;;;;;;2.88;1.20;;;-1.80;99.90;;;;;;4963742;28;88108;-38
2021/12/25 03:03:47;;;;;;;3.88;1.58;;;-1.70;99.90;;;;;;4980621;28;90169;-37
2021/12/25 03:06:13;;;;;;;2.80;1.75;;;-1.70;99.90;;;;;;4981008;28;89620;-39
2021/12/25 03:08:39;;;;;;;1.60;1.30;;;-1.80;99.90;;;;;;4981359;28;88746;-34
2021/12/25 03:11:07;;;;;;;1.60;1.38;;;-1.90;99.90;;;;;;4981238;28;88259;-38
2021/12/25 03:13:37;;;;;;;1.95;1.05;;;-2.00;99.90;;;;;;4981027;28;90615;-38
2021/12/25 03:16:07;;;;;;;1.70;1.60;;;-1.90;99.90;;;;;;4983987;28;89646;-44
2021/12/25 03:18:38;;;;;;;2.55;1.73;;;-2.00;99.90;;;;;;4983980;28;88285;-43
2021/12/25 03:21:05;;;;;;;1.30;0.93;;;-1.80;99.90;;;;;;4982924;28;88526;-39
2021/12/25 03:23:33;;;;;;;1.63;1.00;;;-1.90;99.90;;;;;;4984608;28;90380;-39
2021/12/25 03:26:00;;;;;;;1.30;1.20;;;-2.00;99.90;;;;;;4985014;28;89609;-34
2021/12/25 03:28:29;;;;;;;0.73;0.73;;;-2.10;99.90;;;;;;4984385;28;88149;-44
2021/12/25 03:30:59;;;;;;;0.90;0.80;;;-2.10;99.90;;;;;;4967044;28;88346;-35
2021/12/25 03:33:27;;;;;;;0.90;0.90;;;-2.10;99.90;;;;;;4984687;28;91146;-32
2021/12/25 03:35:52;;;;;;;1.17;1.08;;;-2.10;99.90;;;;;;4984075;28;89444;-38
2021/12/25 03:38:21;;;;;;;1.52;1.23;;;-2.10;99.90;;;;;;4984370;28;87851;-45
2021/12/25 03:40:49;;;;;;;4.03;1.33;;;-2.10;99.90;;;;;;4984394;28;88670;-38
2021/12/25 03:43:15;;;;;;;2.97;1.58;;;-2.20;99.90;;;;;;4983934;28;91756;-37
2021/12/25 03:45:42;;;;;;;3.30;1.27;;;-2.20;99.90;;;;;;4984165;28;89686;-36
2021/12/25 03:48:14;;;;;;;4.18;1.90;;;-2.20;99.90;;;;;;4984497;28;88875;-39
2021/12/25 03:58:54;;;;;;;5.00;1.77;;;-2.40;99.90;;;;;;4984733;28;88540;-36
2021/12/25 04:04:32;;;;;;;4.72;1.23;;;-2.30;99.90;;;;;;4979940;28;90288;-38
2021/12/25 04:07:07;;;;;;;1.90;1.20;;;-2.30;99.90;;;;;;4984379;28;88537;-39
2021/12/25 04:09:34;;;;;;;2.00;1.50;;;-2.40;99.90;;;;;;4983787;28;90282;-35
2021/12/25 04:12:10;;;;;;;4.63;1.50;;;-2.40;99.90;;;;;;4984475;28;88135;-39
2021/12/25 04:14:36;;;;;;;1.05;1.05;;;-2.30;99.90;;;;;;4983620;28;89575;-33
2021/12/25 04:17:01;;;;;;;0.90;0.90;;;-2.40;99.90;;;;;;4965464;28;90032;-33
2021/12/25 04:19:27;;;;;;;3.08;1.10;;;-2.50;99.90;;;;;;4983697;28;88796;-40
2021/12/25 04:24:24;;;;;;;0.90;0.90;;;-2.40;99.90;;;;;;4983261;28;90170;-37
2021/12/25 04:26:50;;;;;;;2.77;1.40;;;-2.40;99.90;;;;;;4982481;28;90264;-34
2021/12/25 05:01:58;;;;;;;1.52;1.42;;;-2.80;99.90;;;;;;4981353;28;90447;-42
2021/12/25 05:06:50;;;;;;;1.20;1.10;;;-2.60;99.90;;;;;;4981516;28;90544;-37
2021/12/25 05:09:16;;;;;;;2.00;1.60;;;-2.70;99.90;;;;;;4963890;28;92813;-41
2021/12/25 05:11:42;;;;;;;5.82;1.48;;;-2.70;99.90;;;;;;4981268;28;89502;-34
2021/12/25 05:14:07;;;;;;;1.23;1.08;;;-2.60;99.90;;;;;;4982148;28;87764;-39
2021/12/25 05:16:33;;;;;;;1.55;1.33;;;-2.70;99.90;;;;;;4981588;28;89843;-34
2021/12/25 05:18:59;;;;;;;1.25;0.77;;;-2.70;99.90;;;;;;4981833;28;90231;-44
2021/12/25 05:21:25;;;;;;;2.40;1.05;;;-2.70;99.90;;;;;;4981306;28;89554;-34
2021/12/25 05:23:51;;;;;;;1.20;1.10;;;-2.70;99.90;;;;;;4980167;28;88147;-37
2021/12/25 05:26:16;;;;;;;2.00;1.90;;;-2.80;99.90;;;;;;4981003;28;90313;-36
2021/12/25 05:28:45;;;;;;;1.10;1.10;;;-2.80;99.90;;;;;;4981458;28;90042;-41
2021/12/25 05:31:13;;;;;;;2.05;1.30;;;-2.80;99.90;;;;;;4980962;28;89554;-38
2021/12/25 05:33:41;;;;;;;0.95;0.77;;;-2.70;99.90;;;;;;4981069;28;89173;-43
2021/12/25 05:36:07;;;;;;;1.55;1.08;;;-2.80;99.90;;;;;;4981087;28;90338;-43
2021/12/25 05:38:34;;;;;;;3.38;1.20;;;-2.70;99.90;;;;;;4980787;28;89755;-33
2021/12/25 05:41:01;;;;;;;1.13;1.08;;;-2.70;99.90;;;;;;4981227;28;88872;-34
2021/12/25 05:43:27;;;;;;;7.22;1.88;;;-2.70;99.90;;;;;;4980940;28;90110;-45
2021/12/25 05:45:52;;;;;;;3.95;1.45;;;-2.80;99.90;;;;;;4980951;28;89175;-36
2021/12/25 05:48:18;;;;;;;1.30;1.23;;;-2.80;99.90;;;;;;4980121;28;90619;-44
2021/12/25 05:50:44;;;;;;;0.70;0.70;;;-2.80;99.90;;;;;;4981540;28;90238;-40
2021/12/25 05:53:10;;;;;;;1.38;1.20;;;-2.80;99.90;;;;;;4981566;28;89841;-34
2021/12/25 05:55:36;;;;;;;3.40;1.02;;;-2.80;99.90;;;;;;4980901;28;90197;-42
2021/12/25 05:58:03;;;;;;;1.38;1.00;;;-2.80;99.90;;;;;;4980617;28;88555;-37
2021/12/25 06:00:30;;;;;;;0.60;0.60;;;-2.90;99.90;;;;;;4980281;28;89617;-41
2021/12/25 06:02:56;;;;;;;1.30;0.85;;;-2.90;99.90;;;;;;4981292;28;89382;-35
2021/12/25 06:05:23;;;;;;;2.13;1.08;;;-2.80;99.90;;;;;;4980807;28;90463;-41
2021/12/25 06:07:49;;;;;;;0.60;0.60;;;-2.80;99.40;;;;;;4980339;28;90185;-36
2021/12/25 06:10:15;;;;;;;1.27;1.17;;;-2.70;98.30;;;;;;4980634;28;89095;-45
2021/12/25 06:12:43;;;;;;;0.88;0.73;;;-2.80;99.30;;;;;;4980297;28;90304;-41
2021/12/25 06:15:12;;;;;;;1.58;0.95;;;-2.90;98.80;;;;;;4980944;28;90083;-34
2021/12/25 06:17:38;;;;;;;1.08;1.08;;;-2.90;98.90;;;;;;4980047;28;89592;-39
2021/12/25 06:20:05;;;;;;;1.17;0.88;;;-2.90;98.60;;;;;;4980209;28;89780;-40
2021/12/25 06:22:31;;;;;;;1.27;0.95;;;-2.90;95.20;;;;;;4980861;28;89602;-33
2021/12/25 06:24:57;;;;;;;1.08;0.93;;;-2.90;94.80;;;;;;4980025;28;89227;-35
2021/12/25 06:27:23;;;;;;;0.68;0.68;;;-2.90;94.60;;;;;;4980518;28;89406;-33
2021/12/25 06:29:50;;;;;;;1.25;0.68;;;-3.00;94.80;;;;;;4980657;28;89377;-37
2021/12/25 06:32:17;;;;;;;0.68;0.68;;;-3.10;95.40;;;;;;4979912;28;89947;-38
2021/12/25 06:34:43;;;;;;;0.88;0.85;;;-3.10;92.50;;;;;;4980615;28;90323;-36
2021/12/25 06:37:09;;;;;;;5.93;0.82;;;-2.90;91.10;;;;;;4979883;28;90663;-38
2021/12/25 06:39:34;;;;;;;1.45;1.15;;;-2.90;90.20;;;;;;4979686;28;90479;-44
2021/12/25 06:42:00;;;;;;;2.10;1.30;;;-2.90;91.30;;;;;;4980750;28;89249;-36
2021/12/25 06:44:27;;;;;;;4.55;1.23;;;-3.00;92.20;;;;;;4961081;28;91514;-42
2021/12/25 06:46:53;;;;;;;0.60;0.60;;;-3.00;90.40;;;;;;4980535;28;89664;-45
2021/12/25 06:49:19;;;;;;;1.08;0.80;;;-2.90;91.40;;;;;;4979908;28;90061;-40
2021/12/25 06:51:45;;;;;;;1.58;1.02;;;-2.90;91.30;;;;;;4979951;28;88714;-37
2021/12/25 06:54:10;;;;;;;1.33;0.93;;;-3.00;91.30;;;;;;4980011;28;88985;-36
2021/12/25 06:56:36;;;;;;;1.15;1.05;;;-3.00;91.70;;;;;;4979645;28;90022;-33
2021/12/25 06:59:02;;;;;;;0.73;0.73;;;-3.00;90.70;;;;;;4980526;28;90718;-42
2021/12/25 07:01:28;;;;;;;11.85;1.45;;;-3.00;91.60;;;;;;4979908;28;90221;-33
2021/12/25 07:03:53;;;;;;;2.05;0.90;;;-3.00;92.00;;;;;;4978968;28;90559;-40
2021/12/25 07:06:21;;;;;;;0.85;0.85;;;-3.00;92.00;;;;;;4980215;28;91141;-36
2021/12/25 07:08:47;;;;;;;1.85;1.15;;;-3.10;92.30;;;;;;4979895;28;89730;-40
2021/12/25 07:11:13;;;;;;;0.60;0.60;;;-3.10;93.50;;;;;;4979830;28;89521;-45
2021/12/25 07:13:42;;;;;;;2.20;1.00;;;-3.10;93.60;;;;;;4980263;28;90870;-42
2021/12/25 07:16:08;;;;;;;2.80;1.30;;;-3.10;94.60;;;;;;4979366;28;90004;-42
2021/12/25 07:18:33;;;;;;;1.40;0.60;;;-3.10;94.20;;;;;;4979792;28;89657;-40
2021/12/25 07:20:59;;;;;;;0.77;0.77;;;-3.20;95.40;;;;;;4980274;28;89469;-40
2021/12/25 07:23:24;;;;;;;1.58;1.30;;;-3.30;96.40;;;;;;4976664;28;90158;-41
2021/12/25 07:25:50;;;;;;;1.45;0.80;;;-3.30;98.40;;;;;;4979046;28;90560;-39
2021/12/25 07:28:16;;;;;;;0.95;0.90;;;-3.30;98.10;;;;;;4979010;28;91851;-37
2021/12/25 07:30:41;;;;;;;1.02;0.75;;;-3.20;96.70;;;;;;4979588;28;89760;-40
2021/12/25 07:33:07;;;;;;;1.55;1.38;;;-3.20;96.90;;;;;;4979734;28;90318;-34
2021/12/25 07:35:32;;;;;;;2.25;1.08;;;-3.30;97.80;;;;;;4973960;28;89370;-34
2021/12/25 07:37:58;;;;;;;1.15;1.00;;;-3.20;97.50;;;;;;4977943;28;90139;-40
2021/12/25 07:40:24;;;;;;;3.17;1.10;;;-3.20;98.40;;;;;;4978082;28;89001;-36
2021/12/25 07:42:49;;;;;;;1.27;1.00;;;-3.20;99.90;;;;;;4978720;28;88599;-42
2021/12/25 07:45:15;;;;;;;0.93;0.70;;;-3.30;99.90;;;;;;4978725;28;90258;-39
2021/12/25 07:47:47;;;;;;;3.65;0.90;;;-3.30;99.90;;;;;;4960798;28;89477;-36
2021/12/25 07:50:13;;;;;;;2.40;1.25;;;-3.30;99.90;;;;;;4978558;28;90775;-32
2021/12/25 07:52:40;;;;;;;2.55;0.70;;;-3.30;99.90;;;;;;4977632;28;90483;-37
2021/12/25 07:55:06;;;;;;;1.02;0.90;;;-3.30;99.90;;;;;;4979358;28;90391;-43
2021/12/25 07:57:32;;;;;;;7.78;1.73;;;-3.40;99.90;;;;;;4977918;28;91117;-38
2021/12/25 07:59:58;;;;;;;0.82;0.82;;;-3.40;99.90;;;;;;4979696;28;89534;-43
2021/12/25 08:02:23;;;;;;;1.10;1.00;;;-3.40;99.90;;;;;;4981163;28;90704;-37
2021/12/25 08:04:49;;;;;;;1.63;0.93;;;-3.40;99.90;;;;;;4981568;28;89606;-42
2021/12/25 08:07:15;;;;;;;3.60;1.70;;;-3.50;99.90;;;;;;4982128;28;89619;-41
2021/12/25 08:09:42;;;;;;;1.23;1.00;;;-3.50;99.90;;;;;;4855591;27;91920;-35
2021/12/25 08:12:08;;;;;;;1.02;0.93;;;-3.50;99.90;;;;;;4959579;28;89947;-35
2021/12/25 08:14:34;;;;;;;1.75;1.05;;;-3.60;99.90;;;;;;4961755;28;90316;-39
2021/12/25 08:17:02;;;;;;;4.32;0.85;;;-3.50;99.90;;;;;;4962159;28;90612;-34
2021/12/25 08:19:28;;;;;;;1.25;0.85;;;-3.50;99.90;;;;;;4962640;28;89089;-45
2021/12/25 08:21:53;;;;;;;2.53;1.95;;;-3.50;99.90;;;;;;4979886;28;90258;-40
2021/12/25 08:24:19;;;;;;;3.85;1.13;;;-3.40;99.90;;;;;;4980566;28;88800;-39
2021/12/25 08:26:46;;;;;;;1.02;0.93;;;-3.50;99.90;;;;;;4982676;28;90607;-39
2021/12/25 08:29:12;;;;;;;2.85;0.95;;;-3.50;99.90;;;;;;4982519;28;89197;-35
2021/12/25 08:31:40;;;;;;;0.90;0.90;;;-3.40;99.90;;;;;;4981432;28;91047;-33
2021/12/25 08:34:07;;;;;;;1.25;1.15;;;-3.30;99.90;;;;;;4965022;28;90091;-36
2021/12/25 08:36:33;;;;;;;0.90;0.82;;;-3.30;99.90;;;;;;4982067;28;89956;-32
2021/12/25 08:38:59;;;;;;;0.88;0.88;;;-3.20;99.90;;;;;;4981432;28;89173;-44
2021/12/25 08:41:29;;;;;;;2.45;1.13;;;-3.20;99.90;;;;;;4980457;28;89665;-42
2021/12/25 08:43:59;;;;;;;1.33;1.23;;;-3.20;99.90;;;;;;4960036;28;90238;-42
2021/12/25 08:46:43;;;;;;;0.50;0.50;;;-3.10;99.90;;;;;;4978554;28;89443;-40
2021/12/25 08:49:14;;;;;;;0.73;0.73;;;-3.00;99.80;;;;;;4980024;28;88954;-36
2021/12/25 08:51:40;;;;;;;1.33;1.13;;;-3.00;99.30;;;;;;4961964;28;90607;-37
2021/12/25 08:54:06;;;;;;;0.88;0.88;;;-2.90;98.80;;;;;;4962451;28;89316;-36
2021/12/25 08:56:32;;;;;;;0.85;0.75;;;-2.90;98.10;;;;;;4961756;28;89928;-43
2021/12/25 08:59:00;;;;;;;1.58;1.15;;;-2.90;99.20;;;;;;4961904;28;88472;-37
2021/12/25 09:01:25;;;;;;;2.25;1.30;;;-2.80;98.80;;;;;;4961101;28;90215;-39
2021/12/25 09:03:51;;;;;;;6.65;0.82;;;-2.80;96.70;;;;;;4973867;28;90428;-32
2021/12/25 09:06:17;;;;;;;1.00;0.98;;;-2.80;97.50;;;;;;4981011;28;90113;-38
2021/12/25 09:08:43;;;;;;;1.35;1.08;;;-2.80;98.30;;;;;;4981806;28;89870;-37
2021/12/25 09:11:09;;;;;;;1.05;0.90;;;-2.70;95.70;;;;;;4981207;28;90056;-40
2021/12/25 09:13:34;;;;;;;1.35;0.98;;;-2.60;96.50;;;;;;4980464;28;89823;-36
2021/12/25 09:16:00;;;;;;;3.30;1.08;;;-2.50;95.10;;;;;;4981002;28;89254;-39
2021/12/25 09:18:26;;;;;;;2.30;1.23;;;-2.50;96.00;;;;;;4981037;28;87660;-37
2021/12/25 09:20:51;;;;;;;1.35;1.00;;;-2.50;95.70;;;;;;4980957;28;90806;-35
2021/12/25 09:23:17;;;;;;;1.85;1.15;;;-2.50;94.40;;;;;;4980217;28;89900;-32
2021/12/25 09:25:43;;;;;;;4.53;3.13;;;-2.40;94.70;;;;;;4979576;28;89339;-40
2021/12/25 09:28:08;;;;;;;1.60;1.30;;;-2.30;94.50;;;;;;4981063;28;89735;-38
2021/12/25 09:30:36;;;;;;;2.00;1.13;;;-2.10;92.70;;;;;;4980704;28;90384;-39
2021/12/25 09:33:02;;;;;;;1.67;1.57;;;-2.10;93.20;;;;;;4981028;28;89204;-38
2021/12/25 09:35:28;;;;;;;1.35;1.05;;;-1.90;93.00;;;;;;4981280;28;88878;-35
2021/12/25 09:37:54;;;;;;;1.75;1.20;;;-1.90;92.60;;;;;;4981639;28;89807;-34
2021/12/25 09:40:19;;;;;;;1.10;1.00;;;-1.90;92.30;;;;;;4980995;28;91157;-44
2021/12/25 09:42:45;;;;;;;7.28;2.67;;;-1.90;92.80;;;;;;4980976;28;89574;-36
2021/12/25 09:45:14;;;;;;;2.97;1.10;;;-1.90;92.70;;;;;;4980764;28;89785;-41
2021/12/25 09:47:41;;;;;;;1.75;1.20;;;-1.80;92.50;;;;;;4981042;28;88922;-38
2021/12/25 09:50:08;;;;;;;1.58;1.25;;;-1.80;92.00;;;;;;4981213;28;89955;-37
2021/12/25 09:52:34;;;;;;;2.13;0.90;;;-1.90;93.00;;;;;;4962570;28;90389;-39
2021/12/25 09:55:00;;;;;;;1.42;1.33;;;-1.90;93.10;;;;;;4965109;28;90983;-45
2021/12/25 09:57:25;;;;;;;3.17;2.60;;;-1.90;94.50;;;;;;4953433;28;89467;-37
2021/12/25 09:59:52;;;;;;;1.20;1.20;;;-1.90;92.70;;;;;;4962745;28;90144;-37
2021/12/25 10:02:19;;;;;;;0.98;0.98;;;-1.90;93.30;;;;;;4970164;28;90470;-44
2021/12/25 10:04:46;;;;;;;1.00;1.00;;;-1.90;93.50;;;;;;4969795;28;89639;-37
2021/12/25 10:07:19;;;;;;;1.88;1.48;;;-1.90;92.50;;;;;;4969030;28;89824;-39
2021/12/25 10:09:54;;;;;;;2.83;1.02;;;-1.90;93.00;;;;;;4957780;28;90771;-37
2021/12/25 10:12:20;;;;;;;3.92;1.58;;;-1.90;92.70;;;;;;4951079;28;89782;-40
2021/12/25 10:14:52;;;;;;;3.03;1.33;;;-1.90;93.80;;;;;;4962874;28;89506;-39
2021/12/25 10:17:19;;;;;;;1.00;1.00;;;-1.90;94.30;;;;;;4963539;28;89010;-37
2021/12/25 10:20:03;;;;;;;0.93;0.93;;;-1.90;94.60;;;;;;4965224;28;90285;-40
2021/12/25 10:22:29;;;;;;;1.25;1.15;;;-1.70;93.50;;;;;;4964870;28;89783;-41
2021/12/25 10:25:10;;;;;;;21.27;1.77;;;-1.70;93.60;;;;;;4967112;28;89610;-45
2021/12/25 10:27:36;;;;;;;1.05;0.85;;;-1.70;92.40;;;;;;4967990;28;88496;-35
2021/12/25 10:30:06;;;;;;;3.70;1.15;;;-1.70;93.30;;;;;;4967926;28;90271;-44
2021/12/25 10:32:38;;;;;;;2.08;1.23;;;-1.70;92.90;;;;;;4968039;28;89716;-44
2021/12/25 10:35:16;;;;;;;1.67;1.00;;;-1.60;93.10;;;;;;4968450;28;89698;-41
2021/12/25 10:37:43;;;;;;;2.88;1.92;;;-1.60;93.10;;;;;;4949433;28;88984;-39
2021/12/25 10:40:26;;;;;;;1.45;1.10;;;-1.60;92.50;;;;;;4964793;28;90358;-41
2021/12/25 10:42:58;;;;;;;2.35;0.98;;;-1.60;93.70;;;;;;4961363;28;89400;-43
2021/12/25 10:45:26;;;;;;;1.77;1.65;;;-1.50;93.20;;;;;;4951381;28;90831;-43
2021/12/25 10:48:01;;;;;;;3.78;1.73;;;-1.60;95.00;;;;;;4964938;28;89651;-39
2021/12/25 10:50:32;;;;;;;2.95;0.90;;;-1.50;92.10;;;;;;4959393;28;90410;-41
2021/12/25 10:52:57;;;;;;;1.40;1.27;;;-1.50;93.10;;;;;;4964983;28;90122;-38
2021/12/25 10:55:25;;;;;;;1.73;1.15;;;-1.30;91.60;;;;;;4961887;28;89144;-38
2021/12/25 10:57:55;;;;;;;1.90;1.27;;;-1.40;92.20;;;;;;4965399;28;89585;-41
2021/12/25 11:00:20;;;;;;;1.95;1.05;;;-1.40;92.70;;;;;;4967829;28;90416;-39
2021/12/25 11:02:48;;;;;;;1.17;0.98;;;-1.30;91.50;;;;;;4967104;28;90447;-43
2021/12/25 11:05:29;;;;;;;1.67;1.20;;;-1.30;91.70;;;;;;4965388;28;91259;-35
2021/12/25 11:08:07;;;;;;;3.15;1.13;;;-1.20;90.60;;;;;;4954130;28;90085;-42
2021/12/25 11:10:46;;;;;;;2.30;1.38;;;-1.20;91.60;;;;;;4960564;28;90389;-44
2021/12/25 11:13:40;;;;;;;2.85;0.90;;;-1.30;91.70;;;;;;4967698;28;90078;-45
2021/12/25 11:16:08;;;;;;;2.15;1.05;;;-1.30;92.80;;;;;;4967230;28;89536;-41
2021/12/25 11:19:11;;;;;;;3.08;2.28;;;-1.20;91.10;;;;;;4949497;28;88761;-43
2021/12/25 11:21:57;;;;;;;1.83;1.30;;;-1.20;91.30;;;;;;4968666;28;90154;-41
2021/12/25 11:24:27;;;;;;;2.38;0.95;;;-1.10;90.70;;;;;;4949143;28;88861;-42
2021/12/25 11:26:59;;;;;;;2.38;1.52;;;-1.10;91.40;;;;;;4968661;28;89828;-36
2021/12/25 11:29:28;;;;;;;3.90;1.48;;;-1.00;89.10;;;;;;4968397;28;88700;-43
2021/12/25 11:31:56;;;;;;;1.50;1.17;;;-1.10;90.50;;;;;;4968797;28;91232;-42
2021/12/25 11:34:24;;;;;;;1.23;1.08;;;-1.00;88.90;;;;;;4967754;28;90606;-41
2021/12/25 11:36:52;;;;;;;2.08;1.00;;;-1.00;88.10;;;;;;4971920;28;90000;-40
2021/12/25 11:39:20;;;;;;;1.23;1.15;;;-1.00;88.00;;;;;;4970996;28;90137;-43
2021/12/25 11:41:47;;;;;;;3.65;2.50;;;-1.00;86.80;;;;;;4954568;28;89569;-38
2021/12/25 11:44:28;;;;;;;1.38;1.25;;;-1.00;87.00;;;;;;4971635;28;89067;-45
2021/12/25 11:46:54;;;;;;;1.27;1.10;;;-0.90;86.40;;;;;;4959485;28;89316;-40
2021/12/25 11:49:19;;;;;;;3.20;2.75;;;-0.90;90.00;;;;;;4967130;28;88392;-42
2021/12/25 11:51:46;;;;;;;1.58;1.35;;;-0.90;88.50;;;;;;4971795;28;91394;-41
2021/12/25 11:55:10;;;;;;;1.10;1.05;;;-0.80;87.40;;;;;;4971729;28;88797;-41
2021/12/25 11:57:59;;;;;;;1.40;1.30;;;-0.80;84.60;;;;;;4971009;28;90276;-46
2021/12/25 12:00:34;;;;;;;1.73;1.20;;;-0.70;84.90;;;;;;4971276;28;88774;-38
2021/12/25 12:03:00;;;;;;;1.75;1.20;;;-0.80;86.90;;;;;;4971395;28;91146;-42
2021/12/25 12:05:29;;;;;;;5.35;1.83;;;-0.80;85.40;;;;;;4971250;28;89061;-35
2021/12/25 12:08:10;;;;;;;2.08;1.58;;;-0.70;84.20;;;;;;4970923;28;89746;-45
2021/12/25 12:10:45;;;;;;;4.30;1.70;;;-0.80;84.00;;;;;;4971427;28;89110;-38
2021/12/25 12:13:27;;;;;;;2.10;1.67;;;-0.70;85.00;;;;;;4971916;28;90822;-40
2021/12/25 12:15:56;;;;;;;9.18;1.98;;;-0.70;89.20;;;;;;4970604;28;90009;-42
2021/12/25 12:18:28;;;;;;;1.33;1.20;;;-0.70;88.40;;;;;;4970634;28;89079;-40
2021/12/25 12:21:10;;;;;;;3.80;1.52;;;-0.80;87.30;;;;;;4970915;28;89689;-38
2021/12/25 12:26:13;;;;;;;5.47;3.63;;;-0.80;85.80;;;;;;4969838;28;91350;-40
2021/12/25 12:28:46;;;;;;;4.85;2.03;;;-0.80;85.80;;;;;;4969525;28;90932;-46
2021/12/25 12:31:40;;;;;;;1.60;1.50;;;-0.70;83.50;;;;;;4970944;28;89119;-38
2021/12/25 12:34:30;;;;;;;3.25;1.75;;;-0.70;84.40;;;;;;4954773;28;88682;-40
2021/12/25 12:37:14;;;;;;;2.15;1.20;;;-0.80;87.90;;;;;;4970161;28;90031;-39
2021/12/25 12:40:04;;;;;;;3.05;2.75;;;-0.70;86.50;;;;;;4969943;28;89583;-36
2021/12/25 12:42:52;;;;;;;6.47;2.25;;;-0.70;84.20;;;;;;4957295;28;88113;-34
2021/12/25 12:45:27;;;;;;;5.03;3.85;;;-0.70;86.10;;;;;;4970750;28;89385;-38
2021/12/25 12:48:12;;;;;;;7.63;6.75;;;-0.70;85.20;;;;;;4969111;28;90056;-41
2021/12/25 12:50:41;;;;;;;10.00;7.35;;;-0.70;85.40;;;;;;4969457;28;89700;-42
2021/12/25 12:53:09;;;;;;;;;;;-0.80;85.50;;;;;;4970303;28;89551;-40
2021/12/25 12:55:37;;;;;;;19.17;14.60;;;-0.80;86.80;;;;;;4971639;28;88749;-46
2021/12/25 12:58:21;;;;;;;7.60;6.78;;;-0.80;86.20;;;;;;4969842;28;90312;-42
2021/12/25 13:00:59;;;;;;;7.95;5.15;;;-0.80;86.70;;;;;;4969133;28;90043;-40
2021/12/25 13:03:26;;;;;;;2.75;1.50;;;-0.80;86.40;;;;;;4969455;28;89999;-46
2021/12/25 13:06:02;;;;;;;10.18;7.65;;;-0.80;86.40;;;;;;4969998;28;91434;-41
2021/12/25 13:08:31;;;;;;;16.48;14.35;;;-0.80;85.70;;;;;;4953264;28;90015;-42
2021/12/25 13:11:06;;;;;;;6.65;6.05;;;-0.70;84.60;;;;;;4969294;28;90623;-40
2021/12/25 13:13:38;;;;;;;13.00;11.50;;;-0.70;85.40;;;;;;4969293;28;90208;-38
2021/12/25 13:16:15;;;;;;;13.95;12.32;;;-0.80;84.90;;;;;;4968514;28;90650;-41
2021/12/25 13:18:43;;;;;;;3.72;2.28;;;-0.70;85.10;;;;;;4968147;28;90157;-42
2021/12/25 13:21:16;;;;;;;8.32;6.45;;;-0.70;82.80;;;;;;4910827;27;91013;-45
2021/12/25 13:26:50;;;;;;;19.33;11.43;;;-0.70;83.70;;;;;;4947821;28;90131;-41
2021/12/25 13:29:22;;;;;;;13.05;10.38;;;-0.70;82.30;;;;;;4948279;28;89913;-37
2021/12/25 13:31:48;;;;;;;8.00;6.07;;;-0.70;83.20;;;;;;4948369;28;89704;-38
2021/12/25 13:34:20;;;;;;;6.80;6.10;;;-0.60;82.40;;;;;;4950153;28;91022;-39
2021/12/25 13:36:50;;;;;;;7.30;5.32;;;-0.70;84.40;;;;;;4948736;28;89609;-38
2021/12/25 13:39:19;;;;;;;16.67;11.35;;;-0.80;85.80;;;;;;4947892;28;90167;-38
2021/12/25 13:41:46;;;;;;;26.35;23.70;;;-0.80;87.50;;;;;;4942998;28;89661;-46
2021/12/25 13:44:24;;;;;;;10.27;9.25;;;-0.80;86.40;;;;;;4947030;28;89922;-43
2021/12/25 13:46:55;;;;;;;10.15;9.07;;;-0.80;84.00;;;;;;4955213;28;88662;-44
2021/12/25 13:49:48;;;;;;;12.07;9.35;;;-0.80;84.30;;;;;;4948566;28;90504;-37
2021/12/25 13:52:19;;;;;;;2.45;1.73;;;-0.70;82.50;;;;;;4948439;28;89573;-40
2021/12/25 13:55:07;;;;;;;1.95;1.60;;;-0.80;84.70;;;;;;4949246;28;88948;-41
2021/12/25 13:57:34;;;;;;;6.05;4.65;;;-0.90;87.10;;;;;;4924401;28;90289;-36
2021/12/25 14:00:27;;;;;;;4.45;4.13;;;-1.00;87.80;;;;;;4946251;28;89750;-37
2021/12/25 14:02:58;;;;;;;6.63;6.03;;;-1.00;87.20;;;;;;4926807;28;89599;-40
2021/12/25 14:05:27;;;;;;;9.90;8.93;;;-1.00;88.60;;;;;;4948544;28;88675;-39
2021/12/25 14:07:53;;;;;;;6.13;5.00;;;-1.00;88.70;;;;;;4948632;28;90837;-37
2021/12/25 14:10:24;;;;;;;12.48;10.73;;;-1.00;89.90;;;;;;4945922;28;90837;-39
2021/12/25 14:12:52;;;;;;;6.78;6.28;;;-1.00;90.20;;;;;;4949225;28;90380;-38
2021/12/25 14:15:25;;;;;;;5.72;4.93;;;-1.10;90.30;;;;;;4948274;28;88154;-44
2021/12/25 14:17:51;;;;;;;16.60;8.00;;;-1.10;90.10;;;;;;4949803;28;91150;-38